Time;durP1;ratioP1;P1;durP2;ratioP2;P2;SDS_P1;SDS_P2;PMS_P1;PMS_P2;Temp;Humidity;BMP_temperature;BMP_pressure;BME280_temperature;BME280_humidity;BME280_pressure;Samples;Min_cycle;Max_cycle;Signal;HPM_P1;HPM_P2
2021/10/20 00:01:10;;;;;;;15.43;13.82;;;15.50;99.90;;;;;;6061084;23;20084;-49
2021/10/20 00:03:39;;;;;;;15.68;14.15;;;15.50;99.90;;;;;;6062820;23;20025;-50
2021/10/20 00:06:06;;;;;;;17.02;15.25;;;15.50;99.90;;;;;;6062374;23;20038;-50
2021/10/20 00:08:32;;;;;;;15.15;13.52;;;15.40;99.90;;;;;;6062523;23;20461;-49
2021/10/20 00:11:03;;;;;;;17.42;14.25;;;15.50;99.90;;;;;;6061986;23;20038;-50
2021/10/20 00:13:29;;;;;;;15.13;13.63;;;15.50;99.90;;;;;;6061299;23;20022;-50
2021/10/20 00:15:55;;;;;;;15.82;13.32;;;15.40;99.90;;;;;;6061060;23;20121;-48
2021/10/20 00:18:22;;;;;;;14.80;13.23;;;15.50;99.90;;;;;;6061646;23;20031;-49
2021/10/20 00:20:48;;;;;;;15.35;13.75;;;15.40;99.90;;;;;;6062269;23;20027;-49
2021/10/20 00:23:16;;;;;;;14.68;13.02;;;15.50;99.90;;;;;;6063245;23;20158;-49
2021/10/20 00:25:46;;;;;;;15.77;12.95;;;15.50;99.90;;;;;;6062845;23;20027;-50
2021/10/20 00:28:12;;;;;;;19.17;12.93;;;15.50;99.90;;;;;;6060793;23;20070;-49
2021/10/20 00:30:41;;;;;;;14.10;12.25;;;15.50;99.90;;;;;;6061862;23;20070;-50
2021/10/20 00:33:07;;;;;;;15.57;12.55;;;15.50;99.90;;;;;;6061114;23;20097;-52
2021/10/20 00:35:36;;;;;;;13.63;12.20;;;15.50;99.90;;;;;;6062044;23;20038;-48
2021/10/20 00:38:02;;;;;;;16.83;12.25;;;15.50;99.90;;;;;;6062705;23;20026;-51
2021/10/20 00:40:30;;;;;;;13.93;12.52;;;15.50;99.90;;;;;;6062328;23;20050;-51
2021/10/20 00:42:57;;;;;;;13.65;11.50;;;15.50;99.90;;;;;;6062247;23;20796;-49
2021/10/20 00:45:23;;;;;;;13.30;11.90;;;15.50;99.90;;;;;;6062478;23;20463;-49
2021/10/20 00:47:49;;;;;;;14.40;12.45;;;15.60;99.90;;;;;;6063480;23;20026;-49
2021/10/20 00:50:16;;;;;;;13.43;11.98;;;15.50;99.90;;;;;;6061287;23;20122;-49
2021/10/20 00:52:42;;;;;;;13.43;12.07;;;15.50;99.90;;;;;;6062300;23;20062;-50
2021/10/20 00:55:10;;;;;;;13.50;11.75;;;15.50;99.90;;;;;;6061744;23;20027;-49
2021/10/20 00:57:39;;;;;;;12.52;11.25;;;15.50;99.90;;;;;;6062926;23;20037;-51
2021/10/20 01:00:07;;;;;;;12.27;10.88;;;15.50;99.90;;;;;;6062627;23;20597;-52
2021/10/20 01:02:35;;;;;;;12.52;11.32;;;15.50;99.90;;;;;;6062944;23;20027;-50
2021/10/20 01:05:05;;;;;;;14.60;11.15;;;15.40;99.90;;;;;;6062941;23;20038;-49
2021/10/20 01:07:31;;;;;;;11.98;10.55;;;15.40;99.90;;;;;;6062981;23;20461;-50
2021/10/20 01:09:58;;;;;;;11.70;10.50;;;15.30;99.90;;;;;;6063328;23;20027;-49
2021/10/20 01:12:26;;;;;;;12.40;10.90;;;15.40;99.90;;;;;;6061652;23;20030;-53
2021/10/20 01:14:52;;;;;;;12.02;10.77;;;15.40;99.90;;;;;;6062502;23;20066;-50
2021/10/20 01:17:19;;;;;;;12.27;10.93;;;15.40;99.90;;;;;;6062273;23;20054;-48
2021/10/20 01:19:46;;;;;;;12.27;10.27;;;15.30;99.90;;;;;;6062082;23;20122;-50
2021/10/20 01:22:12;;;;;;;14.57;11.15;;;15.20;99.90;;;;;;6061429;23;20038;-52
2021/10/20 01:24:41;;;;;;;11.70;10.23;;;15.20;99.90;;;;;;6062715;23;20022;-53
2021/10/20 01:27:07;;;;;;;11.65;10.55;;;15.10;99.90;;;;;;6062416;23;20296;-52
2021/10/20 01:29:33;;;;;;;11.63;10.45;;;15.10;99.90;;;;;;6062554;23;20062;-52
2021/10/20 01:32:04;;;;;;;12.80;10.15;;;15.20;99.90;;;;;;6061593;23;20031;-50
2021/10/20 01:34:30;;;;;;;13.90;11.43;;;15.10;99.90;;;;;;6062254;23;20070;-50
2021/10/20 01:37:02;;;;;;;11.23;10.07;;;15.10;99.90;;;;;;6062456;23;20037;-49
2021/10/20 01:39:28;;;;;;;11.45;9.90;;;15.00;99.90;;;;;;6062862;23;20027;-50
2021/10/20 01:41:56;;;;;;;11.18;10.02;;;14.90;99.90;;;;;;6062241;23;20069;-49
2021/10/20 01:44:22;;;;;;;11.65;10.15;;;14.80;99.90;;;;;;6061643;23;20031;-50
2021/10/20 01:46:51;;;;;;;12.63;10.13;;;14.80;99.90;;;;;;6061788;23;20090;-51
2021/10/20 01:49:17;;;;;;;11.68;10.20;;;14.80;99.90;;;;;;6062157;23;20031;-50
2021/10/20 01:51:43;;;;;;;12.23;10.00;;;14.80;99.90;;;;;;6061836;23;20022;-48
2021/10/20 01:54:10;;;;;;;11.38;10.18;;;14.70;99.90;;;;;;6062613;23;20038;-49
2021/10/20 01:56:36;;;;;;;10.90;9.80;;;14.70;99.90;;;;;;6061238;23;20389;-49
2021/10/20 01:59:04;;;;;;;10.88;9.73;;;14.60;99.90;;;;;;6061583;23;20023;-49
2021/10/20 02:01:30;;;;;;;11.10;9.98;;;14.60;99.90;;;;;;6060852;23;20477;-49
2021/10/20 02:03:59;;;;;;;14.73;10.38;;;14.60;99.90;;;;;;6060866;23;20027;-49
2021/10/20 02:06:27;;;;;;;11.38;9.63;;;14.60;99.90;;;;;;6061336;23;20101;-50
2021/10/20 02:08:54;;;;;;;12.02;9.32;;;14.50;99.90;;;;;;6035551;23;20393;-50
2021/10/20 02:11:21;;;;;;;10.60;9.50;;;14.50;99.90;;;;;;6061123;23;20125;-49
2021/10/20 02:13:48;;;;;;;12.27;9.85;;;14.50;99.90;;;;;;6060390;23;20477;-49
2021/10/20 02:16:14;;;;;;;11.43;9.77;;;14.50;99.90;;;;;;6061312;23;20035;-50
2021/10/20 02:18:42;;;;;;;12.77;9.50;;;14.40;99.90;;;;;;6062380;23;20030;-50
2021/10/20 02:21:11;;;;;;;13.73;10.02;;;14.40;99.90;;;;;;6060804;23;20045;-50
2021/10/20 02:23:37;;;;;;;11.13;9.95;;;14.40;99.90;;;;;;6060526;23;20058;-53
2021/10/20 02:26:03;;;;;;;11.13;9.43;;;14.30;99.90;;;;;;6061526;23;20062;-49
2021/10/20 02:28:32;;;;;;;10.18;9.18;;;14.30;99.90;;;;;;6061612;23;20333;-49
2021/10/20 02:30:58;;;;;;;11.25;9.25;;;14.30;99.90;;;;;;6061817;23;20027;-49
2021/10/20 02:33:24;;;;;;;10.77;9.68;;;14.20;99.90;;;;;;6060513;23;20062;-49
2021/10/20 02:35:51;;;;;;;12.93;9.13;;;14.20;99.90;;;;;;6061613;23;20050;-49
2021/10/20 02:38:17;;;;;;;12.80;10.13;;;14.20;99.90;;;;;;6061048;23;20109;-52
2021/10/20 02:40:45;;;;;;;11.90;9.45;;;14.20;99.90;;;;;;6061352;23;20026;-48
2021/10/20 02:43:16;;;;;;;12.77;9.73;;;14.10;99.90;;;;;;6061854;23;20125;-49
2021/10/20 02:45:43;;;;;;;14.63;9.75;;;14.10;99.90;;;;;;6062032;23;20031;-51
2021/10/20 02:48:09;;;;;;;12.90;10.13;;;14.10;99.90;;;;;;6060611;23;20464;-50
2021/10/20 02:50:36;;;;;;;12.15;9.63;;;14.10;99.90;;;;;;6061060;23;20026;-50
2021/10/20 02:53:02;;;;;;;13.10;10.75;;;14.00;99.90;;;;;;6060649;23;20090;-48
2021/10/20 02:55:29;;;;;;;11.38;10.23;;;14.00;99.90;;;;;;6061559;23;20045;-51
2021/10/20 02:57:56;;;;;;;12.02;10.25;;;14.00;99.90;;;;;;6060639;23;20385;-51
2021/10/20 03:00:22;;;;;;;12.38;10.30;;;14.00;99.90;;;;;;6061066;23;20166;-49
2021/10/20 03:02:49;;;;;;;10.70;9.60;;;14.10;99.90;;;;;;6060467;23;20031;-48
2021/10/20 03:05:15;;;;;;;10.63;9.30;;;14.00;99.90;;;;;;6060916;23;20038;-52
2021/10/20 03:07:51;;;;;;;11.75;10.55;;;14.10;99.90;;;;;;6061278;23;20027;-49
2021/10/20 03:10:19;;;;;;;12.02;10.20;;;14.00;99.90;;;;;;6060389;23;20349;-49
2021/10/20 03:12:45;;;;;;;12.27;10.45;;;14.00;99.90;;;;;;6059877;23;20154;-47
2021/10/20 03:15:11;;;;;;;12.02;9.50;;;14.00;99.90;;;;;;6061415;23;20030;-49
2021/10/20 03:17:38;;;;;;;13.20;11.07;;;14.00;99.90;;;;;;6061118;23;20023;-49
2021/10/20 03:20:09;;;;;;;13.32;10.13;;;14.00;99.90;;;;;;6060986;23;20031;-50
2021/10/20 03:22:40;;;;;;;13.90;9.93;;;14.00;99.90;;;;;;6061024;23;20030;-49
2021/10/20 03:25:11;;;;;;;11.57;10.40;;;14.10;99.90;;;;;;6060805;23;20114;-51
2021/10/20 03:27:41;;;;;;;13.25;10.93;;;14.00;99.90;;;;;;6061004;23;20445;-48
2021/10/20 03:30:07;;;;;;;12.77;11.20;;;14.00;99.90;;;;;;6061064;23;20094;-48
2021/10/20 03:32:36;;;;;;;13.38;10.88;;;14.00;99.90;;;;;;6061233;23;20090;-51
2021/10/20 03:35:05;;;;;;;12.88;11.55;;;14.10;99.90;;;;;;6036032;23;20050;-50
2021/10/20 03:37:31;;;;;;;14.75;11.95;;;14.00;99.90;;;;;;6060150;23;20031;-49
2021/10/20 03:40:01;;;;;;;14.45;12.38;;;14.00;99.90;;;;;;6060915;23;20038;-49
2021/10/20 03:42:29;;;;;;;13.98;12.40;;;14.00;99.90;;;;;;6060790;23;20031;-50
2021/10/20 03:44:56;;;;;;;14.38;11.57;;;14.10;99.90;;;;;;6060344;23;20027;-48
2021/10/20 03:47:23;;;;;;;17.13;11.93;;;14.10;99.90;;;;;;6060923;23;20031;-48
2021/10/20 03:49:50;;;;;;;15.80;12.32;;;14.10;99.90;;;;;;6061112;23;20113;-49
2021/10/20 03:52:17;;;;;;;16.05;12.77;;;14.20;99.90;;;;;;6060400;23;20038;-48
2021/10/20 03:54:43;;;;;;;14.10;12.43;;;14.20;99.90;;;;;;6059958;23;20027;-47
2021/10/20 03:57:12;;;;;;;14.27;11.90;;;14.20;99.90;;;;;;6060569;23;20341;-48
2021/10/20 03:59:38;;;;;;;13.95;12.13;;;14.10;99.90;;;;;;6061279;23;20449;-47
2021/10/20 04:02:07;;;;;;;14.68;12.63;;;14.10;99.90;;;;;;6060603;23;20434;-49
2021/10/20 04:04:35;;;;;;;15.75;12.77;;;14.10;99.90;;;;;;6060842;23;20089;-50
2021/10/20 04:07:13;;;;;;;15.45;13.13;;;14.00;99.90;;;;;;6061583;23;20031;-49
2021/10/20 04:09:42;;;;;;;13.65;12.25;;;14.00;99.90;;;;;;6059241;23;20030;-48
2021/10/20 04:12:09;;;;;;;15.68;12.38;;;14.00;99.90;;;;;;6061447;23;20115;-48
2021/10/20 04:14:35;;;;;;;18.08;13.88;;;14.00;99.90;;;;;;6060461;23;20031;-49
2021/10/20 04:17:02;;;;;;;18.08;14.75;;;14.00;99.90;;;;;;6061573;23;20133;-53
2021/10/20 04:19:30;;;;;;;19.63;14.98;;;14.10;99.90;;;;;;6061779;23;20026;-48
2021/10/20 04:21:56;;;;;;;18.25;14.15;;;14.20;99.90;;;;;;6063339;23;20118;-47
2021/10/20 04:24:22;;;;;;;18.38;14.82;;;14.30;99.90;;;;;;6063614;23;20050;-48
2021/10/20 04:26:51;;;;;;;17.17;14.80;;;14.40;99.90;;;;;;6037789;23;20406;-49
2021/10/20 04:29:20;;;;;;;16.67;14.88;;;14.40;99.90;;;;;;6062057;23;20034;-51
2021/10/20 04:31:46;;;;;;;17.60;14.65;;;14.50;99.90;;;;;;6062396;23;20035;-47
2021/10/20 04:34:12;;;;;;;18.58;14.75;;;14.60;99.90;;;;;;6062004;23;20062;-49
2021/10/20 04:36:40;;;;;;;19.20;14.60;;;14.60;99.90;;;;;;6063189;23;20076;-48
2021/10/20 04:39:09;;;;;;;16.65;12.80;;;14.70;99.90;;;;;;6062942;23;20031;-49
2021/10/20 04:41:35;;;;;;;15.77;14.05;;;14.80;99.90;;;;;;6062368;23;20026;-49
2021/10/20 04:44:02;;;;;;;16.83;13.32;;;14.90;99.90;;;;;;6062290;23;20393;-49
2021/10/20 04:46:31;;;;;;;18.42;14.43;;;14.90;99.90;;;;;;6062937;23;20142;-50
2021/10/20 04:48:59;;;;;;;14.80;13.15;;;14.90;99.90;;;;;;6062547;23;20031;-51
2021/10/20 04:51:25;;;;;;;14.85;12.88;;;15.10;99.90;;;;;;6062507;23;20437;-50
2021/10/20 04:53:51;;;;;;;18.42;14.63;;;15.00;99.90;;;;;;6062288;23;20031;-51
2021/10/20 04:56:18;;;;;;;18.85;13.57;;;15.10;99.90;;;;;;6036539;23;20027;-49
2021/10/20 04:58:44;;;;;;;17.10;14.02;;;15.10;99.90;;;;;;6062676;23;20393;-49
2021/10/20 05:01:12;;;;;;;18.73;13.55;;;15.20;99.90;;;;;;6061647;23;20031;-49
2021/10/20 05:03:38;;;;;;;17.02;13.90;;;15.20;99.90;;;;;;6062013;23;20023;-47
2021/10/20 05:06:05;;;;;;;14.88;12.85;;;15.30;99.90;;;;;;6061615;23;20042;-48
2021/10/20 05:08:31;;;;;;;16.98;12.65;;;15.30;99.90;;;;;;6061861;23;20029;-48
2021/10/20 05:10:58;;;;;;;22.20;14.48;;;15.40;99.90;;;;;;6061300;23;20026;-48
2021/10/20 05:13:25;;;;;;;17.75;14.55;;;15.40;99.90;;;;;;6060834;23;20030;-50
2021/10/20 05:15:54;;;;;;;17.05;14.48;;;15.30;99.90;;;;;;6063117;23;20026;-47
2021/10/20 05:18:23;;;;;;;16.88;15.02;;;15.40;99.90;;;;;;6061541;23;20030;-48
2021/10/20 05:20:51;;;;;;;16.63;14.93;;;15.40;99.90;;;;;;6061700;23;20062;-50
2021/10/20 05:23:17;;;;;;;18.63;15.68;;;15.40;99.90;;;;;;6061930;23;20022;-49
2021/10/20 05:25:43;;;;;;;17.67;14.82;;;15.40;99.90;;;;;;6061423;23;20035;-52
2021/10/20 05:28:10;;;;;;;19.08;16.65;;;15.30;99.90;;;;;;6062450;23;20023;-51
2021/10/20 05:30:36;;;;;;;18.58;15.27;;;15.40;99.90;;;;;;6061647;23;20109;-49
2021/10/20 05:33:02;;;;;;;17.55;15.63;;;15.50;99.90;;;;;;6036632;23;20030;-50
2021/10/20 05:35:29;;;;;;;20.38;16.98;;;15.40;99.90;;;;;;6061603;23;20034;-48
2021/10/20 05:37:57;;;;;;;21.70;16.17;;;15.40;99.90;;;;;;6061383;23;20037;-48
2021/10/20 05:40:24;;;;;;;18.88;16.33;;;15.50;99.90;;;;;;6061730;23;20050;-49
2021/10/20 05:42:51;;;;;;;19.10;15.68;;;15.50;99.90;;;;;;6060940;23;20030;-47
2021/10/20 05:45:18;;;;;;;16.67;14.88;;;15.50;99.90;;;;;;6060384;23;20031;-47
2021/10/20 05:47:43;;;;;;;20.92;16.33;;;15.50;99.90;;;;;;6060141;23;20413;-50
2021/10/20 05:50:10;;;;;;;18.73;15.80;;;15.50;99.90;;;;;;6060588;23;20023;-49
2021/10/20 05:52:36;;;;;;;17.95;15.10;;;15.60;99.90;;;;;;6061345;23;20447;-50
2021/10/20 05:55:03;;;;;;;21.05;15.95;;;15.70;99.90;;;;;;6061270;23;20074;-49
2021/10/20 05:57:35;;;;;;;17.77;14.98;;;15.70;99.90;;;;;;6061565;23;20107;-50
2021/10/20 06:00:03;;;;;;;17.50;15.65;;;15.80;99.90;;;;;;6061055;23;20057;-49
2021/10/20 06:02:37;;;;;;;16.30;14.60;;;16.00;99.90;;;;;;6061012;23;20737;-47
2021/10/20 06:05:04;;;;;;;17.65;14.40;;;16.00;99.90;;;;;;6061484;23;20023;-48
2021/10/20 06:07:37;;;;;;;18.27;13.65;;;16.10;99.90;;;;;;6061140;23;20054;-54
2021/10/20 06:10:07;;;;;;;16.80;14.63;;;16.10;99.90;;;;;;6060427;23;20030;-47
2021/10/20 06:12:33;;;;;;;19.23;15.52;;;16.20;99.90;;;;;;6061004;23;20057;-48
2021/10/20 06:14:59;;;;;;;20.10;15.20;;;16.30;99.90;;;;;;6060672;23;20385;-49
2021/10/20 06:17:25;;;;;;;17.27;14.32;;;16.30;99.90;;;;;;6060331;23;20030;-49
2021/10/20 06:19:56;;;;;;;19.23;15.15;;;16.40;99.90;;;;;;6060807;23;20390;-48
2021/10/20 06:22:22;;;;;;;18.45;14.82;;;16.40;99.90;;;;;;6060636;23;20041;-49
2021/10/20 06:24:51;;;;;;;17.73;14.35;;;16.40;99.90;;;;;;6061176;23;20037;-49
2021/10/20 06:27:18;;;;;;;18.30;14.85;;;16.40;99.90;;;;;;6060748;23;20027;-50
2021/10/20 06:29:44;;;;;;;17.02;15.18;;;16.40;99.90;;;;;;6061111;23;20178;-50
2021/10/20 06:32:15;;;;;;;18.40;14.38;;;16.40;99.90;;;;;;6036262;23;20033;-48
2021/10/20 06:34:44;;;;;;;19.27;15.15;;;16.40;99.90;;;;;;6035108;23;20083;-49
2021/10/20 06:37:11;;;;;;;17.45;14.55;;;16.30;99.90;;;;;;6060240;23;20721;-52
2021/10/20 06:39:42;;;;;;;15.13;13.52;;;16.30;99.90;;;;;;6060718;23;20109;-51
2021/10/20 06:42:11;;;;;;;16.25;14.38;;;16.30;99.90;;;;;;6059629;23;20027;-53
2021/10/20 06:44:37;;;;;;;15.90;13.80;;;16.40;99.90;;;;;;6058657;23;20077;-53
2021/10/20 06:47:05;;;;;;;14.80;13.02;;;16.40;99.90;;;;;;6060260;23;20031;-49
2021/10/20 06:49:31;;;;;;;17.77;14.73;;;16.30;99.90;;;;;;6061238;23;20216;-52
2021/10/20 06:52:02;;;;;;;16.58;14.68;;;16.30;99.90;;;;;;6060767;23;20034;-53
2021/10/20 06:54:31;;;;;;;15.98;14.27;;;16.30;99.90;;;;;;6060320;23;20028;-51
2021/10/20 06:57:01;;;;;;;14.52;12.90;;;16.20;99.90;;;;;;6061618;23;20027;-50
2021/10/20 06:59:29;;;;;;;14.07;12.63;;;16.20;99.90;;;;;;6061257;23;20037;-50
2021/10/20 07:01:55;;;;;;;16.33;13.75;;;16.20;99.90;;;;;;6060691;23;20107;-49
2021/10/20 07:04:22;;;;;;;16.02;13.07;;;16.20;99.90;;;;;;6059054;23;20031;-51
2021/10/20 07:06:50;;;;;;;16.45;14.65;;;16.20;99.90;;;;;;6059957;23;20026;-52
2021/10/20 07:09:17;;;;;;;15.23;12.85;;;16.10;99.90;;;;;;6060827;23;20027;-50
2021/10/20 07:11:46;;;;;;;14.63;13.13;;;16.10;99.90;;;;;;6060997;23;20109;-51
2021/10/20 07:14:12;;;;;;;16.15;12.35;;;16.20;99.90;;;;;;6061513;23;20488;-51
2021/10/20 07:16:38;;;;;;;15.68;13.45;;;16.10;99.90;;;;;;6061116;23;20067;-49
2021/10/20 07:19:07;;;;;;;16.48;11.73;;;16.10;99.90;;;;;;6060400;23;20038;-51
2021/10/20 07:21:42;;;;;;;13.98;11.70;;;16.10;99.90;;;;;;6061313;23;20377;-48
2021/10/20 07:24:08;;;;;;;13.63;11.35;;;16.10;99.90;;;;;;6035546;23;20085;-49
2021/10/20 07:26:35;;;;;;;13.30;11.98;;;16.20;99.90;;;;;;6060733;23;20403;-52
2021/10/20 07:29:05;;;;;;;13.15;11.73;;;16.20;99.90;;;;;;6060558;23;20026;-48
2021/10/20 07:31:32;;;;;;;18.33;13.45;;;16.30;99.90;;;;;;6059904;23;20563;-49
2021/10/20 07:33:59;;;;;;;14.88;12.82;;;16.30;99.90;;;;;;6060078;23;20027;-49
2021/10/20 07:36:27;;;;;;;14.52;11.52;;;16.30;99.90;;;;;;6061069;23;20030;-47
2021/10/20 07:38:53;;;;;;;13.23;11.82;;;16.30;99.90;;;;;;6034883;23;20113;-49
2021/10/20 07:41:22;;;;;;;13.13;10.90;;;16.30;99.90;;;;;;6060265;23;20456;-50
2021/10/20 07:43:48;;;;;;;13.68;11.95;;;16.30;99.90;;;;;;6061185;23;20110;-51
2021/10/20 07:46:14;;;;;;;14.23;11.45;;;16.40;99.90;;;;;;6060536;23;20026;-50
2021/10/20 07:48:40;;;;;;;15.60;11.65;;;16.40;99.90;;;;;;6061223;23;20049;-48
2021/10/20 07:51:06;;;;;;;13.00;11.75;;;16.30;99.90;;;;;;6058919;23;20030;-49
2021/10/20 07:53:32;;;;;;;12.48;11.15;;;16.30;99.90;;;;;;6061263;23;20041;-49
2021/10/20 07:56:01;;;;;;;15.27;10.32;;;16.30;99.90;;;;;;6037125;23;20633;-50
2021/10/20 07:58:27;;;;;;;12.15;10.20;;;16.30;99.90;;;;;;6062288;23;20030;-52
2021/10/20 08:00:54;;;;;;;13.32;10.10;;;16.40;99.90;;;;;;6062380;23;20035;-52
2021/10/20 08:03:20;;;;;;;12.35;9.50;;;16.50;99.90;;;;;;6063278;23;20023;-49
2021/10/20 08:05:49;;;;;;;15.70;10.63;;;16.50;99.90;;;;;;6061685;23;20031;-50
2021/10/20 08:08:15;;;;;;;13.45;11.07;;;16.40;99.90;;;;;;6062384;23;20034;-51
2021/10/20 08:10:41;;;;;;;11.63;9.45;;;16.40;99.90;;;;;;6062208;23;20031;-52
2021/10/20 08:13:08;;;;;;;10.85;8.57;;;16.40;99.90;;;;;;6063481;23;20126;-48
2021/10/20 08:15:34;;;;;;;10.85;9.00;;;16.40;99.90;;;;;;6063282;23;20404;-51
2021/10/20 08:18:04;;;;;;;12.90;9.70;;;16.50;99.90;;;;;;6062460;23;20034;-50
2021/10/20 08:20:38;;;;;;;12.45;10.05;;;16.60;99.90;;;;;;6062625;23;20022;-48
2021/10/20 08:23:07;;;;;;;15.27;9.07;;;16.60;99.90;;;;;;6060091;23;20352;-52
2021/10/20 08:25:35;;;;;;;12.88;10.10;;;16.60;99.90;;;;;;6062056;23;20031;-49
2021/10/20 08:28:05;;;;;;;13.30;11.05;;;16.60;99.90;;;;;;6061857;23;20056;-51
2021/10/20 08:30:33;;;;;;;11.95;9.05;;;16.50;99.90;;;;;;6060296;23;20111;-53
2021/10/20 08:33:00;;;;;;;13.68;9.25;;;16.50;99.90;;;;;;6060872;23;20027;-51
2021/10/20 08:35:26;;;;;;;12.90;8.55;;;16.40;99.90;;;;;;6062124;23;20038;-49
2021/10/20 08:38:00;;;;;;;10.63;9.57;;;16.40;99.90;;;;;;6061800;23;20049;-53
2021/10/20 08:40:33;;;;;;;10.43;9.27;;;16.40;99.90;;;;;;6063258;23;20334;-52
2021/10/20 08:43:02;;;;;;;12.02;9.05;;;16.40;99.90;;;;;;6062380;23;20030;-51
2021/10/20 08:45:29;;;;;;;11.35;8.38;;;16.30;99.90;;;;;;6062300;23;20729;-52
2021/10/20 08:47:56;;;;;;;11.80;9.23;;;16.30;99.90;;;;;;6061496;23;20067;-50
2021/10/20 08:50:26;;;;;;;11.45;9.63;;;16.30;99.90;;;;;;6062095;23;20027;-49
2021/10/20 08:52:53;;;;;;;10.13;9.02;;;16.30;99.90;;;;;;6062833;23;20041;-49
2021/10/20 08:55:21;;;;;;;10.40;8.75;;;16.30;99.90;;;;;;6062443;23;20023;-51
2021/10/20 08:57:49;;;;;;;11.18;8.90;;;16.30;99.90;;;;;;6061901;23;20098;-48
2021/10/20 09:00:19;;;;;;;11.38;8.90;;;16.20;99.90;;;;;;6062083;23;20041;-51
2021/10/20 09:02:47;;;;;;;12.32;9.50;;;16.20;99.90;;;;;;6061029;23;20046;-51
2021/10/20 09:05:19;;;;;;;12.13;8.93;;;16.30;99.90;;;;;;6061185;23;20034;-51
2021/10/20 09:07:47;;;;;;;12.75;9.07;;;16.30;99.90;;;;;;6062436;23;20110;-52
2021/10/20 09:10:14;;;;;;;9.52;8.52;;;16.30;99.90;;;;;;6061884;23;20058;-50
2021/10/20 09:12:40;;;;;;;9.77;8.50;;;16.30;99.90;;;;;;6061382;23;20049;-49
2021/10/20 09:15:19;;;;;;;13.10;9.60;;;16.40;99.90;;;;;;6062134;23;20459;-53
2021/10/20 09:17:58;;;;;;;10.50;9.02;;;16.50;99.90;;;;;;6061918;23;20027;-51
2021/10/20 09:20:45;;;;;;;10.43;8.75;;;16.50;99.90;;;;;;6062007;23;20091;-50
2021/10/20 09:23:14;;;;;;;11.00;9.73;;;16.50;99.90;;;;;;6062197;23;20035;-50
2021/10/20 09:25:56;;;;;;;9.98;8.82;;;16.50;99.90;;;;;;6061630;23;20114;-50
2021/10/20 09:28:33;;;;;;;10.07;9.07;;;16.50;99.90;;;;;;6061670;23;20044;-50
2021/10/20 09:31:05;;;;;;;11.32;9.32;;;16.50;99.90;;;;;;6062487;23;20031;-53
2021/10/20 09:33:38;;;;;;;17.23;9.48;;;16.50;99.90;;;;;;6062399;23;20026;-51
2021/10/20 09:36:15;;;;;;;10.77;9.57;;;16.50;99.90;;;;;;6037271;23;20042;-49
2021/10/20 09:38:48;;;;;;;12.38;9.30;;;16.40;99.90;;;;;;6062256;23;20034;-49
2021/10/20 09:41:16;;;;;;;10.88;9.43;;;16.40;99.90;;;;;;6062095;23;20479;-48
2021/10/20 09:43:52;;;;;;;10.82;9.48;;;16.40;99.90;;;;;;6062718;23;20113;-49
2021/10/20 09:46:37;;;;;;;14.15;9.77;;;16.50;99.90;;;;;;6062550;23;20113;-50
2021/10/20 09:49:16;;;;;;;10.57;9.48;;;16.50;99.90;;;;;;6061755;23;20082;-50
2021/10/20 09:51:43;;;;;;;10.32;9.23;;;16.60;99.90;;;;;;6062221;23;20035;-51
2021/10/20 09:54:23;;;;;;;13.38;10.05;;;16.70;99.90;;;;;;6062965;23;20098;-51
2021/10/20 09:56:55;;;;;;;10.80;9.10;;;16.70;99.90;;;;;;6063361;23;20031;-51
2021/10/20 09:59:24;;;;;;;11.77;9.50;;;16.70;99.90;;;;;;6061953;23;20026;-50
2021/10/20 10:01:51;;;;;;;10.68;9.40;;;16.70;99.90;;;;;;6062358;23;20094;-49
2021/10/20 10:04:19;;;;;;;13.45;10.75;;;16.80;99.90;;;;;;6060957;23;20459;-50
2021/10/20 10:06:47;;;;;;;10.68;8.95;;;16.90;99.90;;;;;;6061943;23;20429;-51
2021/10/20 10:09:13;;;;;;;11.05;9.88;;;16.80;99.90;;;;;;6061684;23;20031;-52
2021/10/20 10:11:46;;;;;;;11.38;8.93;;;16.70;99.90;;;;;;6036574;23;20109;-50
2021/10/20 10:14:14;;;;;;;10.32;9.05;;;16.80;99.90;;;;;;6061856;23;20027;-51
2021/10/20 10:16:42;;;;;;;10.43;9.07;;;16.90;99.90;;;;;;6061859;23;20042;-51
2021/10/20 10:19:11;;;;;;;12.38;9.50;;;17.00;99.90;;;;;;6031292;23;20042;-52
2021/10/20 10:21:41;;;;;;;9.85;8.63;;;17.10;99.90;;;;;;6034823;23;20096;-52
2021/10/20 10:24:13;;;;;;;10.18;9.20;;;17.30;99.90;;;;;;6034220;23;20717;-53
2021/10/20 10:27:01;;;;;;;10.02;8.90;;;17.30;99.90;;;;;;6033985;23;20041;-52
2021/10/20 10:29:28;;;;;;;9.43;8.50;;;17.30;99.90;;;;;;6031770;23;20035;-53
2021/10/20 10:31:59;;;;;;;10.15;9.15;;;17.30;99.90;;;;;;6033893;23;20618;-53
2021/10/20 10:34:31;;;;;;;12.40;9.15;;;17.10;99.90;;;;;;6033462;23;20037;-53
2021/10/20 10:36:59;;;;;;;12.07;9.90;;;17.00;99.90;;;;;;6033504;23;20073;-53
2021/10/20 10:39:28;;;;;;;13.50;9.60;;;16.90;99.90;;;;;;6032081;23;20547;-52
2021/10/20 10:42:05;;;;;;;11.68;10.48;;;16.90;99.90;;;;;;6032053;23;20059;-53
2021/10/20 10:45:07;;;;;;;11.25;10.13;;;16.80;99.90;;;;;;6033312;23;20031;-52
2021/10/20 10:47:33;;;;;;;11.13;9.35;;;16.70;99.90;;;;;;6031476;23;20039;-52
2021/10/20 10:49:59;;;;;;;11.07;9.25;;;16.90;99.90;;;;;;6032481;23;20023;-52
2021/10/20 10:52:38;;;;;;;10.63;9.50;;;17.00;99.90;;;;;;6032294;23;20106;-54
2021/10/20 10:55:18;;;;;;;10.95;9.85;;;17.00;99.90;;;;;;6032292;23;20364;-52
2021/10/20 10:58:01;;;;;;;11.00;9.88;;;17.00;99.90;;;;;;6032329;23;20404;-51
2021/10/20 11:00:43;;;;;;;11.07;9.82;;;17.00;99.90;;;;;;6031707;23;20031;-53
2021/10/20 11:03:09;;;;;;;;;;;17.00;99.90;;;;;;6032365;23;20031;-54
2021/10/20 11:05:36;;;;;;;11.70;10.60;;;16.90;99.90;;;;;;6031945;23;19917;-53
2021/10/20 11:08:17;;;;;;;13.15;11.85;;;16.80;99.90;;;;;;6032569;23;20034;-54
2021/10/20 11:10:44;;;;;;;13.13;11.52;;;16.50;99.90;;;;;;6054939;23;20023;-55
2021/10/20 11:13:13;;;;;;;13.18;11.70;;;16.30;99.90;;;;;;6033159;23;20124;-56
2021/10/20 11:15:40;;;;;;;14.05;11.60;;;16.30;99.90;;;;;;6032914;23;20035;-54
2021/10/20 11:18:07;;;;;;;12.38;11.02;;;16.30;99.90;;;;;;6032421;23;20031;-56
2021/10/20 11:20:36;;;;;;;11.32;10.20;;;16.30;99.90;;;;;;6025813;23;20031;-53
2021/10/20 11:23:08;;;;;;;10.75;9.60;;;16.40;99.90;;;;;;6060871;23;20027;-54
2021/10/20 11:25:40;;;;;;;12.05;10.80;;;16.50;99.90;;;;;;6060896;23;20595;-53
2021/10/20 11:28:07;;;;;;;11.60;10.50;;;16.60;99.90;;;;;;6060504;23;20049;-51
2021/10/20 11:30:35;;;;;;;11.05;9.73;;;16.70;99.90;;;;;;6059875;23;20030;-53
2021/10/20 11:33:05;;;;;;;11.48;10.35;;;16.70;99.90;;;;;;6061245;23;20038;-51
2021/10/20 11:35:32;;;;;;;11.38;10.18;;;16.70;99.90;;;;;;6060438;23;20031;-52
2021/10/20 11:38:05;;;;;;;10.70;9.13;;;16.80;99.90;;;;;;6061085;23;20033;-53
2021/10/20 11:40:33;;;;;;;12.98;9.88;;;16.90;99.90;;;;;;6060929;23;20318;-54
2021/10/20 11:43:00;;;;;;;10.07;8.98;;;16.90;99.90;;;;;;6060777;23;20357;-53
2021/10/20 11:45:31;;;;;;;11.63;9.65;;;17.00;99.90;;;;;;6060894;23;20031;-53
2021/10/20 11:48:05;;;;;;;13.20;8.70;;;17.00;99.90;;;;;;6034401;23;20035;-51
2021/10/20 11:50:32;;;;;;;9.90;8.20;;;17.00;99.90;;;;;;6059013;23;20326;-54
2021/10/20 11:53:04;;;;;;;10.35;9.00;;;17.10;99.90;;;;;;6061035;23;20031;-51
2021/10/20 11:55:31;;;;;;;13.38;8.45;;;17.10;99.90;;;;;;6035097;23;20023;-52
2021/10/20 11:57:57;;;;;;;10.40;7.43;;;17.20;99.90;;;;;;6061069;23;20027;-54
2021/10/20 12:00:23;;;;;;;9.70;7.38;;;17.30;99.90;;;;;;6059276;23;20038;-52
2021/10/20 12:02:50;;;;;;;9.68;7.50;;;17.40;99.90;;;;;;6059873;23;20030;-51
2021/10/20 12:05:17;;;;;;;10.25;6.68;;;17.40;99.90;;;;;;6060401;23;20034;-52
2021/10/20 12:07:48;;;;;;;8.88;7.00;;;17.40;99.90;;;;;;6059679;23;20527;-53
2021/10/20 12:10:19;;;;;;;11.77;7.18;;;17.40;99.90;;;;;;6059363;23;20077;-53
2021/10/20 12:12:49;;;;;;;8.65;6.95;;;17.50;99.90;;;;;;6059339;23;20037;-53
2021/10/20 12:15:17;;;;;;;8.82;6.93;;;17.50;99.90;;;;;;6059524;23;20504;-53
2021/10/20 12:17:45;;;;;;;9.60;6.82;;;17.50;99.90;;;;;;6059504;23;20041;-54
2021/10/20 12:20:14;;;;;;;10.32;7.45;;;17.50;99.90;;;;;;6058774;23;20035;-51
2021/10/20 12:22:41;;;;;;;11.05;7.32;;;17.40;99.90;;;;;;6059284;23;20033;-54
2021/10/20 12:25:09;;;;;;;10.40;7.00;;;17.50;99.90;;;;;;6059328;23;20037;-54
2021/10/20 12:27:39;;;;;;;10.57;6.85;;;17.50;99.90;;;;;;6059835;23;20420;-55
2021/10/20 12:30:07;;;;;;;9.32;6.15;;;17.50;99.90;;;;;;6060333;23;20445;-52
2021/10/20 12:32:36;;;;;;;9.23;5.95;;;17.50;99.90;;;;;;6060166;23;20102;-53
2021/10/20 12:35:12;;;;;;;10.43;7.13;;;17.50;99.90;;;;;;6058319;23;20475;-52
2021/10/20 12:37:41;;;;;;;9.63;6.32;;;17.60;99.90;;;;;;6060278;23;20414;-52